Sydney, New South Wales

3:51 PM AEDT on March 02, 2015 (GMT +1100)
Kingsford Smith International | Change Station
CLOSE
Current Station
Airport
Location: Sydney,
Elevation: 20 ft
Nearby Weather Stations

Elev 20 ft 33.95 °S, 151.17 °E | Updated 21 minutes ago

Mostly Cloudy
Mostly Cloudy
72 °F
Feels Like 72 °F
N
13
Wind Variable Wind from South

Today
High -- | Low -- °F
--% Chance of Precip.
Yesterday
High -- | Low -- °F
Precip. -- in
6:43 AM 7:31 PM
Waxing Gibbous, 89% visible
Pressure 30.04 in
Visibility 6.2 miles
Clouds Few 3000 ft
Scattered Clouds 5500 ft
Mostly Cloudy 6500 ft
Dew Point 63 °F
Humidity 73%
Rainfall 0.00 in
Snow Depth Not available.
UV 4 out of 12
Pollen Not available.
Air Quality Not available.
Flu Activity Not available.
METAR YSSY 020430Z 18011KT 9999 FEW030 SCT055 BKN065 22/17 Q1017 FM0445 09010KT 9999 FEW030 SCT045

More Conditions Fewer Conditions

Pressure 30.04 in
Visibility 6.2 miles
Clouds Few 3000 ft
Scattered Clouds 5500 ft
Mostly Cloudy 6500 ft
Dew Point 63 °F
Humidity 73%
Rainfall 0.00 in
Snow Depth Not available.
UV 4 out of 12
Pollen Not available.
Air Quality Not available.
Flu Activity Not available.
METAR YSSY 020430Z 18011KT 9999 FEW030 SCT055 BKN065 22/17 Q1017 FM0445 09010KT 9999 FEW030 SCT045

More Conditions Fewer Conditions

10-Day Weather Forecast

Almanac

Astronomy

Mar. 02, 2015 Rise Set
Actual Time
Civil Twilight
Nautical Twilight
Astronomical Twilight
Moon
Length of Visible Light
Length of Day
Tomorrow will be .
, % of the Moon is Illuminated

Today's Extremes

Country Highs Country Lows

Community

WunderPhotos

Upload Photos

1,801,725 photos uploaded!

WunderBlogs® & News

Nearby

Air Quality

  Air Quality AQ Index Pollutant
Not available.

Snow Depth

Station Depth Elevation

Earthquake Activity

City Distance Mag. Time & Date
Minimum magnitude displayed is 2.5.

Coastal Water Temperatures

Place Temperature

Nearby Weather Stations